Time;durP1;ratioP1;P1;durP2;ratioP2;P2;SDS_P1;SDS_P2;PMS_P1;PMS_P2;Temp;Humidity;BMP_temperature;BMP_pressure;BME280_temperature;BME280_humidity;BME280_pressure;Samples;Min_cycle;Max_cycle;Signal;HPM_P1;HPM_P2
2023/09/30 00:00:03;;;;;;;15.93;4.23;;;13.50;99.90;;;;;;5051149;28;20029;-73
2023/09/30 00:02:30;;;;;;;12.13;4.30;;;13.40;99.90;;;;;;5066581;28;20051;-73
2023/09/30 00:04:55;;;;;;;15.73;4.90;;;13.40;99.90;;;;;;5053777;28;20015;-73
2023/09/30 00:07:21;;;;;;;11.33;3.83;;;13.40;99.90;;;;;;5052419;28;20051;-73
2023/09/30 00:09:51;;;;;;;11.07;3.97;;;13.40;99.90;;;;;;5064948;28;20051;-73
2023/09/30 00:12:17;;;;;;;13.23;4.03;;;13.30;99.90;;;;;;5049815;28;20032;-73
2023/09/30 00:14:45;;;;;;;13.70;4.17;;;13.30;99.90;;;;;;5066934;28;20029;-73
2023/09/30 00:17:13;;;;;;;11.80;4.90;;;13.30;99.90;;;;;;5059966;28;20052;-73
2023/09/30 00:19:38;;;;;;;13.20;3.80;;;13.30;99.90;;;;;;5067457;28;20029;-72
2023/09/30 00:22:07;;;;;;;16.13;4.73;;;13.30;99.90;;;;;;5054508;28;20107;-73
2023/09/30 00:24:35;;;;;;;11.97;4.10;;;13.20;99.90;;;;;;5049067;28;20025;-74
2023/09/30 00:27:01;;;;;;;13.37;4.93;;;13.20;99.90;;;;;;5051056;28;20032;-73
2023/09/30 00:29:26;;;;;;;10.80;4.10;;;13.20;99.90;;;;;;5065212;28;20048;-73
2023/09/30 00:31:52;;;;;;;14.93;4.10;;;13.20;99.90;;;;;;5048575;28;20036;-73
2023/09/30 00:34:17;;;;;;;9.27;3.40;;;13.20;99.90;;;;;;5051682;28;20025;-73
2023/09/30 00:36:43;;;;;;;9.17;3.83;;;13.20;99.90;;;;;;5050796;28;20041;-73
2023/09/30 00:39:09;;;;;;;12.27;4.20;;;13.20;99.90;;;;;;5068476;28;20025;-73
2023/09/30 00:41:41;;;;;;;10.90;4.07;;;13.20;99.90;;;;;;5067986;28;20036;-74
2023/09/30 00:44:09;;;;;;;12.18;3.53;;;13.20;99.90;;;;;;5067364;28;20032;-73
2023/09/30 00:46:41;;;;;;;10.60;3.70;;;13.10;99.90;;;;;;5067128;28;20080;-73
2023/09/30 00:49:07;;;;;;;9.00;3.47;;;13.10;99.90;;;;;;5051645;28;20049;-73
2023/09/30 00:51:36;;;;;;;18.97;4.50;;;13.10;99.90;;;;;;5065310;28;20044;-73
2023/09/30 00:54:03;;;;;;;16.67;4.27;;;13.10;99.90;;;;;;5067810;28;20029;-73
2023/09/30 00:56:32;;;;;;;14.10;4.67;;;13.10;99.90;;;;;;5046266;28;20105;-73
2023/09/30 00:59:01;;;;;;;10.73;4.17;;;13.10;99.90;;;;;;5050285;28;20139;-73
2023/09/30 01:01:26;;;;;;;7.90;3.70;;;13.00;99.90;;;;;;5065296;28;20028;-73
2023/09/30 01:03:54;;;;;;;9.87;4.27;;;13.00;99.90;;;;;;5068319;28;20228;-72
2023/09/30 01:06:20;;;;;;;13.60;4.00;;;13.00;99.90;;;;;;5067759;28;20048;-74
2023/09/30 01:08:46;;;;;;;9.70;3.63;;;13.00;99.90;;;;;;5064855;28;21053;-73
2023/09/30 01:11:15;;;;;;;11.13;3.87;;;13.00;99.90;;;;;;5066598;28;20035;-73
2023/09/30 01:13:44;;;;;;;18.20;4.57;;;13.10;99.90;;;;;;5067373;28;20021;-73
2023/09/30 01:16:11;;;;;;;8.03;3.20;;;13.00;99.90;;;;;;5066092;28;20025;-73
2023/09/30 01:18:38;;;;;;;10.63;3.93;;;13.00;99.90;;;;;;5064479;28;20021;-73
2023/09/30 01:21:07;;;;;;;7.67;3.13;;;13.00;99.90;;;;;;5048847;28;20048;-73
2023/09/30 01:23:33;;;;;;;13.03;3.60;;;13.10;99.90;;;;;;5048445;28;20051;-74
2023/09/30 01:26:09;;;;;;;19.53;4.57;;;13.20;99.90;;;;;;5066262;28;20044;-73
2023/09/30 01:28:38;;;;;;;8.87;3.90;;;13.00;99.90;;;;;;5048077;28;20032;-73
2023/09/30 01:31:05;;;;;;;9.80;3.33;;;13.10;99.90;;;;;;5065471;28;20014;-73
2023/09/30 01:33:31;;;;;;;11.03;4.13;;;13.00;99.90;;;;;;5066274;28;20044;-73
2023/09/30 01:35:57;;;;;;;10.50;3.70;;;13.00;99.90;;;;;;5046112;28;20104;-75
2023/09/30 01:38:23;;;;;;;7.87;3.87;;;13.00;99.90;;;;;;5053387;28;20033;-74
2023/09/30 01:40:54;;;;;;;13.07;4.97;;;12.90;99.90;;;;;;5067485;28;20009;-72
2023/09/30 01:43:22;;;;;;;16.63;4.53;;;12.90;99.90;;;;;;5065354;28;20037;-73
2023/09/30 01:45:48;;;;;;;17.63;4.43;;;12.80;99.90;;;;;;5066246;28;20072;-73
2023/09/30 01:48:14;;;;;;;10.60;3.50;;;12.80;99.90;;;;;;5066654;28;20014;-72
2023/09/30 01:50:40;;;;;;;10.23;3.80;;;12.90;99.90;;;;;;5063194;28;20040;-74
2023/09/30 01:53:09;;;;;;;10.37;3.77;;;12.90;99.90;;;;;;5067286;28;20036;-73
2023/09/30 01:55:36;;;;;;;12.83;3.73;;;12.90;99.90;;;;;;5066205;28;20025;-73
2023/09/30 01:58:01;;;;;;;15.97;3.70;;;12.80;99.90;;;;;;5063732;28;20029;-73
2023/09/30 02:00:28;;;;;;;15.03;4.23;;;12.90;99.90;;;;;;5063340;28;20301;-73
2023/09/30 02:02:56;;;;;;;11.67;4.23;;;12.80;99.90;;;;;;5049621;28;20019;-73
2023/09/30 02:05:23;;;;;;;12.80;4.10;;;12.80;99.90;;;;;;5066184;28;20028;-73
2023/09/30 02:07:49;;;;;;;9.07;3.20;;;12.80;99.90;;;;;;5066542;28;20029;-74
2023/09/30 02:10:15;;;;;;;10.63;3.63;;;12.70;99.90;;;;;;5051596;28;20043;-73
2023/09/30 02:12:41;;;;;;;13.33;3.20;;;12.70;99.90;;;;;;5067177;28;20044;-74
2023/09/30 02:15:07;;;;;;;15.47;4.00;;;12.70;99.90;;;;;;5062333;28;20025;-72
2023/09/30 02:17:33;;;;;;;9.53;3.67;;;12.70;99.90;;;;;;5049554;28;20013;-73
2023/09/30 02:20:01;;;;;;;9.80;3.73;;;12.70;99.90;;;;;;5066098;28;20032;-74
2023/09/30 02:22:28;;;;;;;11.87;3.73;;;12.70;99.90;;;;;;5064306;28;20032;-73
2023/09/30 02:24:55;;;;;;;12.40;3.87;;;12.70;99.90;;;;;;5046446;28;20029;-73
2023/09/30 02:27:21;;;;;;;12.33;3.57;;;12.70;99.90;;;;;;5066915;28;20036;-74
2023/09/30 02:29:47;;;;;;;8.03;3.57;;;12.60;99.90;;;;;;5065528;28;20180;-72
2023/09/30 02:32:14;;;;;;;10.17;3.53;;;12.60;99.90;;;;;;5050798;28;20055;-73
2023/09/30 02:34:42;;;;;;;10.43;3.40;;;12.60;99.90;;;;;;5051653;28;20024;-73
2023/09/30 02:37:08;;;;;;;11.10;3.60;;;12.60;99.90;;;;;;5067705;28;20025;-73
2023/09/30 02:39:33;;;;;;;9.67;3.47;;;12.50;99.90;;;;;;5050504;28;20026;-74
2023/09/30 02:41:59;;;;;;;7.43;3.13;;;12.50;99.90;;;;;;5050295;28;20021;-73
2023/09/30 02:44:29;;;;;;;7.87;3.23;;;12.50;99.90;;;;;;5067543;28;20073;-73
2023/09/30 02:46:55;;;;;;;15.30;4.00;;;12.40;99.90;;;;;;5051238;28;20052;-73
2023/09/30 02:49:21;;;;;;;6.90;3.00;;;12.50;99.90;;;;;;5051693;28;20036;-74
2023/09/30 02:51:47;;;;;;;9.20;3.80;;;12.40;99.90;;;;;;5063568;28;20090;-74
2023/09/30 02:54:16;;;;;;;7.83;3.50;;;12.30;99.90;;;;;;5050959;28;20030;-74
2023/09/30 02:56:42;;;;;;;14.67;4.27;;;12.40;99.90;;;;;;5066837;28;20030;-73
2023/09/30 02:59:07;;;;;;;12.70;3.90;;;12.30;99.90;;;;;;5052295;28;20044;-73
2023/09/30 03:01:34;;;;;;;7.50;2.90;;;12.20;99.90;;;;;;5050513;28;20029;-75
2023/09/30 03:04:01;;;;;;;13.83;3.97;;;12.20;99.90;;;;;;5052284;28;20029;-73
2023/09/30 03:06:27;;;;;;;11.57;3.93;;;12.20;99.90;;;;;;5067673;28;20029;-73
2023/09/30 03:08:57;;;;;;;8.40;3.27;;;12.20;99.90;;;;;;5068641;28;20013;-73
2023/09/30 03:11:23;;;;;;;7.63;3.30;;;12.20;99.90;;;;;;5052096;28;20049;-74
2023/09/30 03:13:55;;;;;;;11.07;4.40;;;12.30;99.90;;;;;;5050489;28;20032;-73
2023/09/30 03:16:20;;;;;;;16.15;4.43;;;12.30;99.90;;;;;;5067662;28;20013;-74
2023/09/30 03:18:46;;;;;;;8.83;3.67;;;12.20;99.90;;;;;;5066499;28;20072;-73
2023/09/30 03:21:15;;;;;;;10.53;3.97;;;12.10;99.90;;;;;;5067017;28;20604;-74
2023/09/30 03:23:41;;;;;;;10.20;4.57;;;12.20;99.90;;;;;;5067056;28;20033;-73
2023/09/30 03:26:09;;;;;;;10.27;4.03;;;12.10;99.90;;;;;;5066993;28;20043;-74
2023/09/30 03:28:36;;;;;;;9.37;3.90;;;12.10;99.90;;;;;;5067314;28;20017;-73
2023/09/30 03:31:04;;;;;;;18.47;5.07;;;12.20;99.90;;;;;;5065875;28;20052;-73
2023/09/30 03:33:31;;;;;;;10.77;4.20;;;12.10;99.90;;;;;;5058255;28;20021;-73
2023/09/30 03:35:59;;;;;;;12.40;3.53;;;12.10;99.90;;;;;;5052610;28;20029;-74
2023/09/30 03:38:26;;;;;;;9.70;4.07;;;12.10;99.90;;;;;;5070975;28;20032;-74
2023/09/30 03:40:54;;;;;;;11.40;4.13;;;12.10;99.90;;;;;;5054492;28;20022;-74
2023/09/30 03:43:22;;;;;;;8.30;3.10;;;12.10;99.90;;;;;;5053338;28;20017;-74
2023/09/30 03:45:48;;;;;;;10.50;3.70;;;12.00;99.90;;;;;;5055118;28;20051;-73
2023/09/30 03:48:18;;;;;;;10.20;3.33;;;12.00;99.90;;;;;;5070736;28;20013;-74
2023/09/30 03:50:44;;;;;;;6.23;3.13;;;12.00;99.90;;;;;;5070055;28;20041;-75
2023/09/30 03:53:09;;;;;;;7.53;3.27;;;11.90;99.90;;;;;;5050949;28;20040;-75
2023/09/30 03:55:36;;;;;;;11.27;3.27;;;11.90;99.90;;;;;;5052216;28;20042;-74
2023/09/30 03:58:03;;;;;;;10.83;3.47;;;11.90;99.90;;;;;;5053091;28;20231;-76
2023/09/30 04:00:29;;;;;;;9.73;3.50;;;11.90;99.90;;;;;;5068693;28;20021;-75
2023/09/30 04:02:58;;;;;;;9.80;3.93;;;11.90;99.90;;;;;;5067622;28;20064;-78
2023/09/30 04:05:36;;;;;;;10.00;3.80;;;11.80;99.90;;;;;;5052265;28;20026;-74
2023/09/30 04:08:02;;;;;;;10.87;4.13;;;11.70;99.90;;;;;;5052364;28;20044;-75
2023/09/30 04:10:29;;;;;;;11.33;3.93;;;11.70;99.90;;;;;;5065039;28;20014;-77
2023/09/30 04:12:58;;;;;;;9.23;3.63;;;11.60;99.90;;;;;;5064471;28;20043;-77
2023/09/30 04:15:24;;;;;;;5.00;2.67;;;11.60;99.90;;;;;;5065910;28;20096;-75
2023/09/30 04:17:52;;;;;;;6.60;3.13;;;11.50;99.90;;;;;;5065003;28;20056;-80
2023/09/30 04:20:22;;;;;;;8.33;4.17;;;11.50;99.90;;;;;;5047635;28;20044;-76
2023/09/30 04:22:57;;;;;;;7.63;3.43;;;11.50;99.90;;;;;;5066032;28;20064;-73
2023/09/30 04:25:26;;;;;;;8.30;3.30;;;11.50;99.90;;;;;;5045324;28;20035;-79
2023/09/30 04:27:54;;;;;;;13.10;3.73;;;11.50;99.90;;;;;;5048794;28;20127;-77
2023/09/30 04:30:22;;;;;;;11.73;3.87;;;11.50;99.90;;;;;;5050545;28;20067;-80
2023/09/30 04:32:48;;;;;;;6.63;3.40;;;11.50;99.90;;;;;;5064510;28;20105;-76
2023/09/30 04:35:14;;;;;;;11.70;3.43;;;11.50;99.90;;;;;;5058755;28;20037;-77
2023/09/30 04:37:40;;;;;;;11.90;3.90;;;11.50;99.90;;;;;;5044101;28;20096;-77
2023/09/30 04:40:19;;;;;;;14.47;4.70;;;11.50;99.90;;;;;;5061212;28;20044;-78
2023/09/30 04:42:49;;;;;;;15.47;4.37;;;11.50;99.90;;;;;;5046893;28;20041;-78
2023/09/30 04:45:24;;;;;;;8.90;4.07;;;11.50;99.90;;;;;;5059811;28;20029;-77
2023/09/30 04:47:52;;;;;;;13.27;4.23;;;11.50;99.90;;;;;;5059283;28;20028;-79
2023/09/30 04:50:17;;;;;;;8.47;3.77;;;11.40;99.90;;;;;;5059243;28;20037;-78
2023/09/30 04:52:45;;;;;;;13.73;4.70;;;11.40;99.90;;;;;;5042724;28;20059;-77
2023/09/30 04:55:12;;;;;;;13.43;4.90;;;11.40;99.90;;;;;;5059020;28;20021;-74
2023/09/30 04:57:38;;;;;;;12.27;4.37;;;11.30;99.90;;;;;;5057479;28;20030;-74
2023/09/30 05:00:13;;;;;;;15.73;4.93;;;11.30;99.90;;;;;;5042623;28;20132;-77
2023/09/30 05:02:42;;;;;;;13.03;3.70;;;11.30;99.90;;;;;;5058899;28;20033;-77
2023/09/30 05:05:10;;;;;;;10.83;4.33;;;11.30;99.90;;;;;;5046967;28;20033;-76
2023/09/30 05:07:36;;;;;;;8.03;3.97;;;11.30;99.90;;;;;;5058153;28;20130;-79
2023/09/30 05:10:10;;;;;;;14.23;4.67;;;11.30;99.90;;;;;;5042218;28;20656;-75
2023/09/30 05:12:38;;;;;;;11.67;3.50;;;11.30;99.90;;;;;;5047736;28;20044;-76
2023/09/30 05:15:07;;;;;;;10.80;4.53;;;11.30;99.90;;;;;;5058522;28;20459;-75
2023/09/30 05:17:32;;;;;;;12.67;3.97;;;11.20;99.90;;;;;;5057433;28;20058;-78
2023/09/30 05:19:59;;;;;;;7.93;3.90;;;11.30;99.90;;;;;;5058207;28;20026;-79
2023/09/30 05:22:25;;;;;;;8.87;5.33;;;11.20;99.90;;;;;;5057588;28;20036;-81
2023/09/30 05:24:51;;;;;;;9.10;5.00;;;11.20;99.90;;;;;;5040751;28;20021;-75
2023/09/30 05:27:20;;;;;;;16.60;4.37;;;11.10;99.90;;;;;;5056264;28;20025;-76
2023/09/30 05:29:45;;;;;;;15.03;4.40;;;11.10;99.90;;;;;;5043658;28;20035;-80
2023/09/30 05:32:12;;;;;;;11.73;5.30;;;11.10;99.90;;;;;;5056100;28;20033;-77
2023/09/30 05:34:39;;;;;;;12.13;5.70;;;11.10;99.90;;;;;;5059007;28;20048;-78
2023/09/30 05:37:05;;;;;;;12.37;6.00;;;11.10;99.90;;;;;;5039897;28;20036;-77
2023/09/30 05:39:31;;;;;;;14.67;6.10;;;11.00;99.90;;;;;;5061541;28;20029;-76
2023/09/30 05:41:57;;;;;;;15.63;6.37;;;11.10;99.90;;;;;;5042849;28;20028;-76
2023/09/30 05:44:28;;;;;;;16.50;5.97;;;11.00;99.90;;;;;;5059713;28;20057;-76
2023/09/30 05:46:56;;;;;;;13.77;6.40;;;11.10;99.90;;;;;;5054920;28;20032;-76
2023/09/30 05:49:24;;;;;;;12.93;6.13;;;11.10;99.90;;;;;;5057539;28;20037;-76
2023/09/30 05:51:50;;;;;;;14.23;4.90;;;11.10;99.90;;;;;;5060532;28;20089;-79
2023/09/30 05:54:16;;;;;;;11.30;5.33;;;11.00;99.90;;;;;;5058622;28;20570;-76
2023/09/30 05:56:44;;;;;;;13.63;5.40;;;11.00;99.90;;;;;;5045737;28;20036;-77
2023/09/30 05:59:10;;;;;;;12.80;5.60;;;11.10;99.90;;;;;;5038849;28;20207;-77
2023/09/30 06:01:35;;;;;;;16.43;6.70;;;11.10;99.90;;;;;;5046384;28;20066;-75
2023/09/30 06:04:04;;;;;;;14.57;5.60;;;11.00;99.90;;;;;;5059526;28;20033;-77
2023/09/30 06:06:30;;;;;;;9.93;4.00;;;11.10;99.90;;;;;;5040177;28;20101;-79
2023/09/30 06:09:01;;;;;;;11.17;4.57;;;11.10;99.90;;;;;;5042834;28;20033;-77
2023/09/30 06:11:30;;;;;;;12.47;5.57;;;11.00;99.90;;;;;;5042450;28;20031;-79
2023/09/30 06:14:02;;;;;;;13.33;5.50;;;11.10;99.90;;;;;;5055425;28;20029;-78
2023/09/30 06:16:31;;;;;;;12.33;6.30;;;11.10;99.90;;;;;;5042306;28;20025;-78
2023/09/30 06:18:57;;;;;;;10.53;5.27;;;11.10;99.90;;;;;;5058476;28;20033;-80
2023/09/30 06:21:24;;;;;;;18.40;6.50;;;11.20;99.90;;;;;;5058443;28;20097;-77
2023/09/30 06:23:53;;;;;;;13.17;5.83;;;11.20;99.90;;;;;;5060133;28;20032;-76
2023/09/30 06:26:21;;;;;;;11.20;5.80;;;11.20;99.90;;;;;;5040746;28;20029;-77
2023/09/30 06:28:47;;;;;;;12.03;6.37;;;11.20;99.90;;;;;;5058474;28;20053;-76
2023/09/30 06:31:15;;;;;;;12.33;6.30;;;11.20;99.90;;;;;;5042908;28;20037;-76
2023/09/30 06:33:41;;;;;;;16.93;6.33;;;11.20;99.90;;;;;;5059978;28;20108;-74
2023/09/30 06:36:10;;;;;;;17.40;7.37;;;11.40;99.90;;;;;;5057739;28;20154;-76
2023/09/30 06:38:39;;;;;;;19.23;8.47;;;11.30;99.90;;;;;;5058271;28;20336;-75
2023/09/30 06:41:05;;;;;;;16.13;7.67;;;11.30;99.90;;;;;;5061947;28;20021;-76
2023/09/30 06:43:35;;;;;;;18.90;10.10;;;11.30;99.90;;;;;;5062675;28;20048;-80
2023/09/30 06:46:09;;;;;;;22.33;10.00;;;11.30;99.90;;;;;;5063038;28;20037;-79
2023/09/30 06:48:37;;;;;;;17.27;8.77;;;11.40;99.90;;;;;;5066067;28;20059;-78
2023/09/30 06:51:05;;;;;;;18.60;9.13;;;11.50;99.90;;;;;;5061301;28;20009;-75
2023/09/30 06:53:31;;;;;;;20.37;9.53;;;11.50;99.90;;;;;;5068922;28;20047;-74
2023/09/30 06:55:56;;;;;;;22.03;9.97;;;11.60;99.90;;;;;;5067554;28;20025;-74
2023/09/30 06:58:24;;;;;;;21.53;9.87;;;11.70;99.90;;;;;;5070189;28;20033;-74
2023/09/30 07:00:54;;;;;;;24.40;12.27;;;11.70;99.90;;;;;;5048326;28;20021;-74
2023/09/30 07:03:19;;;;;;;24.57;12.40;;;11.80;99.90;;;;;;5064840;28;20032;-74
2023/09/30 07:05:45;;;;;;;23.07;11.90;;;11.90;99.90;;;;;;5050986;28;20109;-74
2023/09/30 07:08:11;;;;;;;18.83;10.53;;;11.90;99.90;;;;;;5070411;28;20025;-73
2023/09/30 07:10:37;;;;;;;24.77;12.50;;;11.90;99.90;;;;;;5052820;28;20021;-73
2023/09/30 07:13:12;;;;;;;25.13;13.37;;;12.00;99.90;;;;;;5053973;28;20044;-74
2023/09/30 07:15:40;;;;;;;24.50;11.07;;;12.10;99.90;;;;;;5045947;28;21300;-77
2023/09/30 07:18:08;;;;;;;23.30;12.27;;;12.10;99.90;;;;;;5040359;28;20032;-75
2023/09/30 07:20:41;;;;;;;27.60;12.80;;;12.10;99.90;;;;;;5023588;28;20033;-77
2023/09/30 07:23:09;;;;;;;24.83;12.73;;;12.20;99.90;;;;;;5039603;28;20538;-75
2023/09/30 07:25:39;;;;;;;26.93;13.60;;;12.30;99.90;;;;;;5021407;28;20026;-78
2023/09/30 07:28:11;;;;;;;31.60;14.13;;;12.30;99.90;;;;;;5044594;28;20093;-76
2023/09/30 07:30:37;;;;;;;32.28;15.90;;;12.40;99.90;;;;;;5052880;28;20020;-72
2023/09/30 07:33:03;;;;;;;26.63;15.93;;;12.40;99.90;;;;;;5065216;28;20079;-72
2023/09/30 07:35:28;;;;;;;35.73;14.73;;;12.40;99.90;;;;;;5053081;28;20017;-73
2023/09/30 07:37:57;;;;;;;23.70;13.97;;;12.50;99.90;;;;;;5067743;28;20025;-73
2023/09/30 07:40:25;;;;;;;24.70;13.13;;;12.50;99.90;;;;;;5068321;28;20005;-72
2023/09/30 07:42:56;;;;;;;23.80;13.43;;;12.60;99.90;;;;;;5069600;28;20042;-72
2023/09/30 07:45:26;;;;;;;25.13;14.23;;;12.60;99.90;;;;;;5053653;28;20128;-73
2023/09/30 07:47:54;;;;;;;22.37;12.97;;;12.60;99.90;;;;;;5065578;28;20479;-73
2023/09/30 07:50:22;;;;;;;22.90;13.23;;;12.60;99.90;;;;;;5067120;28;20021;-72
2023/09/30 07:52:50;;;;;;;27.13;14.50;;;12.60;99.90;;;;;;5051860;28;20108;-72
2023/09/30 07:55:16;;;;;;;21.50;12.70;;;12.70;99.90;;;;;;5069870;28;20033;-73
2023/09/30 07:57:43;;;;;;;25.40;14.00;;;12.80;99.90;;;;;;5066427;28;20016;-72
2023/09/30 08:00:15;;;;;;;25.17;13.90;;;12.80;99.90;;;;;;5068482;28;20032;-72
2023/09/30 08:02:41;;;;;;;24.85;14.95;;;12.80;99.90;;;;;;5067666;28;20017;-73
2023/09/30 08:05:10;;;;;;;26.90;14.57;;;12.80;99.90;;;;;;5067693;28;20045;-75
2023/09/30 08:07:38;;;;;;;26.00;15.10;;;12.90;99.90;;;;;;5066301;28;20037;-73
2023/09/30 08:10:06;;;;;;;28.97;15.50;;;12.90;99.90;;;;;;5065401;28;20033;-73
2023/09/30 08:12:34;;;;;;;22.03;13.43;;;12.90;99.90;;;;;;5067970;28;20033;-72
2023/09/30 08:14:59;;;;;;;26.60;15.65;;;13.00;99.90;;;;;;5050106;28;20040;-72
2023/09/30 08:17:30;;;;;;;25.60;14.90;;;13.10;99.90;;;;;;5057470;28;20036;-72
2023/09/30 08:19:55;;;;;;;26.75;16.23;;;13.20;99.90;;;;;;5066231;28;20037;-73
2023/09/30 08:22:25;;;;;;;26.25;14.52;;;13.20;99.90;;;;;;5050442;28;20032;-72
2023/09/30 08:24:50;;;;;;;27.27;13.23;;;13.20;99.90;;;;;;5051385;28;20025;-74
2023/09/30 08:27:16;;;;;;;27.33;13.98;;;13.20;99.90;;;;;;5046480;28;20045;-74
2023/09/30 08:29:42;;;;;;;24.63;13.95;;;13.30;99.90;;;;;;5067743;28;20033;-75
2023/09/30 08:32:07;;;;;;;27.75;13.90;;;13.30;99.90;;;;;;5054552;28;20210;-77
2023/09/30 08:34:33;;;;;;;20.73;11.82;;;13.30;99.90;;;;;;5044127;28;20034;-75
2023/09/30 08:36:59;;;;;;;22.00;13.18;;;13.40;99.90;;;;;;5058598;28;20092;-78
2023/09/30 08:39:24;;;;;;;17.92;12.27;;;13.40;99.90;;;;;;5060091;28;20036;-74
2023/09/30 08:41:50;;;;;;;24.10;11.38;;;13.50;99.90;;;;;;5063995;28;20052;-71
2023/09/30 08:44:16;;;;;;;19.42;10.60;;;13.50;99.90;;;;;;5065532;28;20047;-73
2023/09/30 08:46:43;;;;;;;19.52;11.52;;;13.60;99.90;;;;;;5065928;28;20041;-73
2023/09/30 08:49:14;;;;;;;22.30;11.85;;;13.70;99.90;;;;;;5051324;28;20023;-73
2023/09/30 08:51:39;;;;;;;19.42;12.43;;;13.70;99.90;;;;;;5053048;28;20083;-75
2023/09/30 08:54:05;;;;;;;19.83;10.88;;;13.70;99.90;;;;;;5049478;28;20029;-72
2023/09/30 08:56:35;;;;;;;24.40;12.07;;;13.70;99.90;;;;;;5066648;28;20021;-74
2023/09/30 08:59:02;;;;;;;21.58;12.07;;;13.70;99.90;;;;;;5066450;28;20084;-72
2023/09/30 09:01:29;;;;;;;22.13;12.15;;;13.80;99.90;;;;;;5052427;28;20017;-72
2023/09/30 09:03:55;;;;;;;16.73;10.25;;;13.90;99.90;;;;;;5066194;28;20032;-73
2023/09/30 09:06:25;;;;;;;15.68;10.32;;;13.90;99.90;;;;;;5063663;28;20096;-72
2023/09/30 09:08:51;;;;;;;20.98;11.90;;;14.00;99.90;;;;;;5063576;28;20005;-73
2023/09/30 09:11:17;;;;;;;19.17;11.75;;;14.00;99.90;;;;;;5065121;28;20056;-73
2023/09/30 09:13:49;;;;;;;24.38;13.32;;;14.10;99.90;;;;;;5065531;28;20037;-73
2023/09/30 09:16:15;;;;;;;25.55;12.55;;;14.10;99.90;;;;;;5047822;28;20409;-73
2023/09/30 09:18:41;;;;;;;18.67;10.80;;;14.10;99.90;;;;;;5063602;28;20025;-76
2023/09/30 09:21:10;;;;;;;20.65;10.43;;;14.10;99.90;;;;;;5064591;28;20082;-72
2023/09/30 09:23:46;;;;;;;21.80;11.52;;;14.20;99.90;;;;;;5048642;28;20017;-74
2023/09/30 09:26:24;;;;;;;22.45;10.23;;;14.30;99.90;;;;;;5062765;28;20049;-73
2023/09/30 09:28:49;;;;;;;13.50;8.50;;;14.30;99.90;;;;;;5048553;28;20029;-72
2023/09/30 09:31:22;;;;;;;22.58;9.02;;;14.40;99.90;;;;;;5063814;28;20025;-72
2023/09/30 09:33:49;;;;;;;18.25;8.43;;;14.50;99.90;;;;;;5052010;28;20032;-72
2023/09/30 09:36:15;;;;;;;19.90;8.98;;;14.50;99.90;;;;;;5063144;28;20060;-73
2023/09/30 09:38:54;;;;;;;18.85;8.63;;;14.60;99.90;;;;;;5065925;28;21181;-72
2023/09/30 09:41:23;;;;;;;16.70;8.10;;;14.60;99.90;;;;;;5065071;28;20040;-72
2023/09/30 09:43:51;;;;;;;21.17;11.13;;;14.70;99.90;;;;;;5046659;28;20025;-72
2023/09/30 09:46:20;;;;;;;18.58;9.27;;;14.70;99.90;;;;;;5063017;28;20102;-73
2023/09/30 09:48:49;;;;;;;16.05;9.50;;;14.80;99.90;;;;;;5064883;28;20017;-72
2023/09/30 09:51:17;;;;;;;14.88;8.65;;;14.80;99.90;;;;;;5048676;28;20025;-73
2023/09/30 09:53:43;;;;;;;16.65;8.70;;;14.90;99.90;;;;;;5067428;28;20087;-75
2023/09/30 09:56:10;;;;;;;13.77;7.80;;;15.10;99.90;;;;;;5049323;28;20048;-75
2023/09/30 09:58:40;;;;;;;15.80;8.10;;;15.10;99.90;;;;;;5063745;28;20009;-73
2023/09/30 10:01:09;;;;;;;13.57;8.45;;;15.30;99.90;;;;;;5067372;28;20059;-73
2023/09/30 10:03:36;;;;;;;11.75;6.32;;;15.40;99.90;;;;;;5063764;28;20033;-72
2023/09/30 10:06:02;;;;;;;12.70;6.40;;;15.50;99.90;;;;;;5066318;28;20059;-73
2023/09/30 10:08:40;;;;;;;11.77;6.60;;;15.60;99.90;;;;;;5065112;28;20049;-72
2023/09/30 10:11:06;;;;;;;17.77;7.55;;;15.70;99.90;;;;;;5051997;28;20017;-74
2023/09/30 10:13:51;;;;;;;18.00;7.75;;;15.70;99.90;;;;;;5062860;28;20052;-73
2023/09/30 10:16:41;;;;;;;14.07;8.05;;;15.80;99.90;;;;;;5044401;28;20051;-73
2023/09/30 10:19:24;;;;;;;14.20;7.35;;;15.90;99.90;;;;;;5053706;28;20029;-72
2023/09/30 10:24:43;;;;;;;11.75;7.07;;;16.00;99.90;;;;;;5065518;28;20058;-76
2023/09/30 10:27:24;;;;;;;17.52;7.55;;;16.10;99.90;;;;;;5053107;28;20039;-75
2023/09/30 10:30:13;;;;;;;15.27;7.47;;;16.20;99.90;;;;;;5065650;28;20081;-74
2023/09/30 10:32:51;;;;;;;15.35;7.45;;;16.20;99.90;;;;;;5068885;28;20048;-73
2023/09/30 10:35:17;;;;;;;15.82;6.60;;;16.20;99.90;;;;;;5066180;28;20041;-73
2023/09/30 10:37:45;;;;;;;9.63;5.95;;;16.20;99.90;;;;;;5053174;28;20438;-75
2023/09/30 10:40:41;;;;;;;14.95;7.40;;;16.20;99.90;;;;;;5053143;28;20033;-74
2023/09/30 10:43:35;;;;;;;11.55;5.25;;;16.30;99.90;;;;;;5027697;28;20045;-74
2023/09/30 10:46:02;;;;;;;11.02;5.18;;;16.30;99.90;;;;;;5044996;28;20032;-78
2023/09/30 10:48:27;;;;;;;9.32;4.57;;;16.50;99.90;;;;;;5039819;28;20029;-76
2023/09/30 10:50:56;;;;;;;10.63;5.40;;;16.60;99.90;;;;;;5023992;28;20029;-80
2023/09/30 10:53:27;;;;;;;9.38;5.18;;;16.70;99.90;;;;;;5037714;28;20374;-76
2023/09/30 10:55:57;;;;;;;7.68;3.97;;;16.70;99.90;;;;;;5028081;28;20025;-80
2023/09/30 10:58:44;;;;;;;6.78;3.28;;;16.70;99.90;;;;;;5042551;28;20033;-74
2023/09/30 11:01:11;;;;;;;7.00;2.85;;;16.70;99.90;;;;;;5042440;28;20068;-77
2023/09/30 11:03:37;;;;;;;10.88;3.50;;;16.90;99.90;;;;;;5039948;28;20116;-75
2023/09/30 11:06:07;;;;;;;8.23;3.63;;;17.00;99.90;;;;;;5041861;28;20163;-77
2023/09/30 11:08:36;;;;;;;7.68;3.10;;;17.00;99.90;;;;;;5025074;28;20033;-76
2023/09/30 11:11:02;;;;;;;7.35;3.20;;;17.10;99.90;;;;;;5046654;28;20029;-79
2023/09/30 11:13:35;;;;;;;10.05;3.00;;;17.20;99.90;;;;;;5031999;28;20083;-78
2023/09/30 11:16:04;;;;;;;10.00;3.58;;;17.20;99.90;;;;;;5026509;28;20055;-78
2023/09/30 11:18:33;;;;;;;8.65;3.40;;;17.30;99.90;;;;;;5042069;28;20030;-77
2023/09/30 11:21:10;;;;;;;8.13;3.15;;;17.20;99.90;;;;;;5028848;28;20064;-77
2023/09/30 11:23:37;;;;;;;6.90;2.80;;;17.10;99.90;;;;;;5048096;28;20088;-74
2023/09/30 11:26:03;;;;;;;7.05;3.10;;;17.20;99.90;;;;;;5066484;28;20024;-74
2023/09/30 11:28:42;;;;;;;8.55;3.08;;;17.20;99.90;;;;;;5049799;28;20104;-75
2023/09/30 11:31:14;;;;;;;13.65;3.63;;;17.20;99.90;;;;;;5049737;28;20029;-76
2023/09/30 11:33:53;;;;;;;8.75;2.80;;;17.20;99.90;;;;;;5067057;28;20132;-74
2023/09/30 11:36:21;;;;;;;7.43;2.80;;;17.10;99.90;;;;;;5063204;28;20017;-76
2023/09/30 11:38:51;;;;;;;5.35;2.78;;;17.20;99.90;;;;;;5054668;28;20423;-75
2023/09/30 11:41:18;;;;;;;6.72;2.42;;;17.30;99.90;;;;;;5069137;28;20088;-74
2023/09/30 11:44:07;;;;;;;7.50;2.22;;;17.20;99.90;;;;;;5066666;28;20037;-74
2023/09/30 11:46:47;;;;;;;8.35;2.35;;;17.20;99.90;;;;;;5066827;28;20029;-74
2023/09/30 11:49:13;;;;;;;11.45;2.63;;;17.10;99.90;;;;;;5066843;28;20020;-74
2023/09/30 11:51:47;;;;;;;9.70;2.30;;;17.10;99.90;;;;;;5065075;28;20047;-74
2023/09/30 11:54:14;;;;;;;6.80;2.10;;;17.10;99.90;;;;;;5063766;28;20025;-75
2023/09/30 11:56:42;;;;;;;8.65;2.45;;;17.20;99.90;;;;;;5048742;28;20033;-78
2023/09/30 11:59:10;;;;;;;10.65;2.35;;;17.20;99.90;;;;;;5037001;28;20044;-77
2023/09/30 12:01:39;;;;;;;7.07;2.78;;;17.20;99.90;;;;;;5044328;28;20029;-76
2023/09/30 12:04:06;;;;;;;8.05;3.17;;;17.30;99.90;;;;;;5039680;28;20032;-77
2023/09/30 12:06:36;;;;;;;7.05;2.95;;;17.30;99.90;;;;;;5040115;28;20467;-75
2023/09/30 12:09:02;;;;;;;11.55;2.47;;;17.50;99.90;;;;;;5039065;28;20025;-79
2023/09/30 12:11:31;;;;;;;7.43;2.95;;;17.50;99.90;;;;;;5040387;28;20022;-79
2023/09/30 12:14:01;;;;;;;11.90;2.95;;;17.60;99.90;;;;;;5038871;28;20036;-76
2023/09/30 12:16:27;;;;;;;9.57;2.88;;;17.70;99.90;;;;;;5030362;28;20096;-76
2023/09/30 12:18:57;;;;;;;12.23;3.33;;;17.90;99.90;;;;;;5041944;28;20068;-75
2023/09/30 12:21:23;;;;;;;5.50;2.67;;;18.10;99.90;;;;;;5039152;28;20041;-79
2023/09/30 12:23:49;;;;;;;7.35;2.40;;;18.10;99.90;;;;;;5039403;28;20072;-81
2023/09/30 12:26:15;;;;;;;9.93;2.90;;;18.10;99.90;;;;;;5040003;28;20037;-80
2023/09/30 12:28:40;;;;;;;7.40;2.65;;;18.10;99.90;;;;;;5023256;28;20049;-76
2023/09/30 12:31:06;;;;;;;6.65;2.88;;;18.10;99.90;;;;;;5039412;28;20067;-80
2023/09/30 12:33:32;;;;;;;7.97;2.28;;;18.10;99.90;;;;;;5024521;28;20033;-78
2023/09/30 12:36:05;;;;;;;7.97;2.92;;;18.20;99.90;;;;;;5023684;28;20037;-80
2023/09/30 12:38:31;;;;;;;8.40;2.55;;;18.20;99.90;;;;;;5039273;28;20033;-80
2023/09/30 12:40:56;;;;;;;5.85;2.70;;;18.20;99.90;;;;;;5038049;28;20029;-79
2023/09/30 12:43:22;;;;;;;7.75;2.80;;;18.30;99.90;;;;;;5038809;28;20041;-77
2023/09/30 12:45:52;;;;;;;5.43;2.50;;;18.40;99.90;;;;;;5040183;28;20033;-80